sensor_id;sensor_type;location;lat;lon;timestamp;P1;durP1;ratioP1;P2;durP2;ratioP2
52468;SDS011;38381;53.688;10.776;2024-03-07T00:01:34;28.27;;;17.58;;
52468;SDS011;38381;53.688;10.776;2024-03-07T00:06:34;27.13;;;17.27;;
52468;SDS011;38381;53.688;10.776;2024-03-07T00:11:35;32.20;;;18.88;;
52468;SDS011;38381;53.688;10.776;2024-03-07T00:16:35;29.20;;;20.15;;
52468;SDS011;38381;53.688;10.776;2024-03-07T00:21:36;25.35;;;18.38;;
52468;SDS011;38381;53.688;10.776;2024-03-07T00:26:36;27.83;;;18.13;;
52468;SDS011;38381;53.688;10.776;2024-03-07T00:31:36;26.90;;;17.20;;
52468;SDS011;38381;53.688;10.776;2024-03-07T00:36:37;29.17;;;16.15;;
52468;SDS011;38381;53.688;10.776;2024-03-07T00:41:41;28.40;;;17.20;;
52468;SDS011;38381;53.688;10.776;2024-03-07T00:46:42;35.25;;;18.02;;
52468;SDS011;38381;53.688;10.776;2024-03-07T00:51:42;30.92;;;17.55;;
52468;SDS011;38381;53.688;10.776;2024-03-07T00:56:44;21.45;;;16.60;;
52468;SDS011;38381;53.688;10.776;2024-03-07T01:01:45;26.50;;;17.80;;
52468;SDS011;38381;53.688;10.776;2024-03-07T01:06:45;21.33;;;15.55;;
52468;SDS011;38381;53.688;10.776;2024-03-07T01:11:46;23.25;;;16.17;;
52468;SDS011;38381;53.688;10.776;2024-03-07T01:16:46;26.27;;;15.50;;
52468;SDS011;38381;53.688;10.776;2024-03-07T01:21:47;24.75;;;15.85;;
52468;SDS011;38381;53.688;10.776;2024-03-07T01:26:48;26.35;;;16.88;;
52468;SDS011;38381;53.688;10.776;2024-03-07T01:31:48;24.25;;;15.88;;
52468;SDS011;38381;53.688;10.776;2024-03-07T01:36:49;22.80;;;16.33;;
52468;SDS011;38381;53.688;10.776;2024-03-07T01:41:49;23.13;;;14.40;;
52468;SDS011;38381;53.688;10.776;2024-03-07T01:46:50;23.02;;;14.85;;
52468;SDS011;38381;53.688;10.776;2024-03-07T01:51:50;25.45;;;15.27;;
52468;SDS011;38381;53.688;10.776;2024-03-07T01:56:51;26.63;;;14.75;;
52468;SDS011;38381;53.688;10.776;2024-03-07T02:01:52;24.80;;;16.27;;
52468;SDS011;38381;53.688;10.776;2024-03-07T02:06:53;25.77;;;13.60;;
52468;SDS011;38381;53.688;10.776;2024-03-07T02:11:55;26.60;;;16.95;;
52468;SDS011;38381;53.688;10.776;2024-03-07T02:16:56;22.42;;;15.48;;
52468;SDS011;38381;53.688;10.776;2024-03-07T02:21:56;24.83;;;18.13;;
52468;SDS011;38381;53.688;10.776;2024-03-07T02:26:57;35.17;;;18.60;;
52468;SDS011;38381;53.688;10.776;2024-03-07T02:31:59;19.75;;;15.68;;
52468;SDS011;38381;53.688;10.776;2024-03-07T02:36:59;28.98;;;18.98;;
52468;SDS011;38381;53.688;10.776;2024-03-07T02:42:00;22.15;;;15.48;;
52468;SDS011;38381;53.688;10.776;2024-03-07T02:47:01;30.52;;;18.25;;
52468;SDS011;38381;53.688;10.776;2024-03-07T02:52:04;27.45;;;16.23;;
52468;SDS011;38381;53.688;10.776;2024-03-07T02:57:07;28.77;;;16.45;;
52468;SDS011;38381;53.688;10.776;2024-03-07T03:02:08;21.17;;;14.63;;
52468;SDS011;38381;53.688;10.776;2024-03-07T03:07:08;28.45;;;16.88;;
52468;SDS011;38381;53.688;10.776;2024-03-07T03:12:09;17.38;;;14.05;;
52468;SDS011;38381;53.688;10.776;2024-03-07T03:17:10;20.92;;;13.95;;
52468;SDS011;38381;53.688;10.776;2024-03-07T03:22:11;21.65;;;14.20;;
52468;SDS011;38381;53.688;10.776;2024-03-07T03:27:11;20.95;;;12.65;;
52468;SDS011;38381;53.688;10.776;2024-03-07T03:32:12;15.23;;;13.25;;
52468;SDS011;38381;53.688;10.776;2024-03-07T03:37:12;17.83;;;12.77;;
52468;SDS011;38381;53.688;10.776;2024-03-07T03:42:14;14.65;;;12.50;;
52468;SDS011;38381;53.688;10.776;2024-03-07T03:47:14;13.32;;;11.93;;
52468;SDS011;38381;53.688;10.776;2024-03-07T03:52:14;15.60;;;12.57;;
52468;SDS011;38381;53.688;10.776;2024-03-07T03:57:15;15.82;;;13.25;;
52468;SDS011;38381;53.688;10.776;2024-03-07T04:02:18;18.90;;;13.05;;
52468;SDS011;38381;53.688;10.776;2024-03-07T04:07:19;17.60;;;12.90;;
52468;SDS011;38381;53.688;10.776;2024-03-07T04:12:20;17.08;;;11.85;;
52468;SDS011;38381;53.688;10.776;2024-03-07T04:17:21;15.65;;;12.38;;
52468;SDS011;38381;53.688;10.776;2024-03-07T04:22:21;15.13;;;11.13;;
52468;SDS011;38381;53.688;10.776;2024-03-07T04:27:23;14.73;;;11.48;;
52468;SDS011;38381;53.688;10.776;2024-03-07T04:32:23;14.65;;;11.30;;
52468;SDS011;38381;53.688;10.776;2024-03-07T04:37:24;15.38;;;11.40;;
52468;SDS011;38381;53.688;10.776;2024-03-07T04:42:24;11.70;;;10.50;;
52468;SDS011;38381;53.688;10.776;2024-03-07T04:47:26;15.10;;;12.07;;
52468;SDS011;38381;53.688;10.776;2024-03-07T04:52:26;13.82;;;11.85;;
52468;SDS011;38381;53.688;10.776;2024-03-07T04:57:27;13.20;;;11.32;;
52468;SDS011;38381;53.688;10.776;2024-03-07T05:02:27;17.88;;;10.27;;
52468;SDS011;38381;53.688;10.776;2024-03-07T05:07:28;17.88;;;13.65;;
52468;SDS011;38381;53.688;10.776;2024-03-07T05:12:28;17.60;;;13.23;;
52468;SDS011;38381;53.688;10.776;2024-03-07T05:17:28;17.67;;;14.45;;
52468;SDS011;38381;53.688;10.776;2024-03-07T05:22:29;16.38;;;13.02;;
52468;SDS011;38381;53.688;10.776;2024-03-07T05:27:30;17.08;;;13.65;;
52468;SDS011;38381;53.688;10.776;2024-03-07T05:32:30;14.98;;;12.38;;
52468;SDS011;38381;53.688;10.776;2024-03-07T05:37:31;16.50;;;12.23;;
52468;SDS011;38381;53.688;10.776;2024-03-07T05:42:32;14.05;;;11.82;;
52468;SDS011;38381;53.688;10.776;2024-03-07T05:47:32;14.13;;;11.85;;
52468;SDS011;38381;53.688;10.776;2024-03-07T05:52:32;15.98;;;13.05;;
52468;SDS011;38381;53.688;10.776;2024-03-07T05:57:33;16.80;;;13.52;;
52468;SDS011;38381;53.688;10.776;2024-03-07T06:02:33;21.15;;;16.35;;
52468;SDS011;38381;53.688;10.776;2024-03-07T06:07:34;17.10;;;14.15;;
52468;SDS011;38381;53.688;10.776;2024-03-07T06:12:34;16.70;;;13.73;;
52468;SDS011;38381;53.688;10.776;2024-03-07T06:17:34;16.95;;;12.75;;
52468;SDS011;38381;53.688;10.776;2024-03-07T06:22:35;16.63;;;13.73;;
52468;SDS011;38381;53.688;10.776;2024-03-07T06:27:35;15.88;;;12.95;;
52468;SDS011;38381;53.688;10.776;2024-03-07T06:37:39;15.75;;;12.68;;
52468;SDS011;38381;53.688;10.776;2024-03-07T06:42:40;16.20;;;12.98;;
52468;SDS011;38381;53.688;10.776;2024-03-07T06:47:40;14.68;;;12.15;;
52468;SDS011;38381;53.688;10.776;2024-03-07T06:52:41;14.80;;;12.35;;
52468;SDS011;38381;53.688;10.776;2024-03-07T06:57:42;13.82;;;11.48;;
52468;SDS011;38381;53.688;10.776;2024-03-07T07:02:43;16.67;;;12.00;;
52468;SDS011;38381;53.688;10.776;2024-03-07T07:07:44;14.88;;;11.95;;
52468;SDS011;38381;53.688;10.776;2024-03-07T07:12:45;15.57;;;12.75;;
52468;SDS011;38381;53.688;10.776;2024-03-07T07:17:47;16.45;;;11.75;;
52468;SDS011;38381;53.688;10.776;2024-03-07T07:22:50;15.57;;;13.15;;
52468;SDS011;38381;53.688;10.776;2024-03-07T07:27:53;18.88;;;13.43;;
52468;SDS011;38381;53.688;10.776;2024-03-07T07:32:53;19.15;;;13.93;;
52468;SDS011;38381;53.688;10.776;2024-03-07T07:37:54;20.05;;;13.95;;
52468;SDS011;38381;53.688;10.776;2024-03-07T07:42:55;21.33;;;13.10;;
52468;SDS011;38381;53.688;10.776;2024-03-07T07:47:56;18.50;;;15.75;;
52468;SDS011;38381;53.688;10.776;2024-03-07T07:52:57;18.88;;;15.40;;
52468;SDS011;38381;53.688;10.776;2024-03-07T07:57:59;20.73;;;14.98;;
52468;SDS011;38381;53.688;10.776;2024-03-07T08:03:04;22.40;;;16.10;;
52468;SDS011;38381;53.688;10.776;2024-03-07T08:08:08;20.60;;;14.52;;
52468;SDS011;38381;53.688;10.776;2024-03-07T08:13:11;19.23;;;16.92;;
52468;SDS011;38381;53.688;10.776;2024-03-07T08:18:13;25.75;;;15.07;;
52468;SDS011;38381;53.688;10.776;2024-03-07T08:23:13;22.42;;;16.85;;
52468;SDS011;38381;53.688;10.776;2024-03-07T08:28:14;21.90;;;15.43;;
52468;SDS011;38381;53.688;10.776;2024-03-07T08:33:14;20.55;;;15.50;;
52468;SDS011;38381;53.688;10.776;2024-03-07T08:38:15;21.65;;;15.73;;
52468;SDS011;38381;53.688;10.776;2024-03-07T08:43:16;22.23;;;15.07;;
52468;SDS011;38381;53.688;10.776;2024-03-07T08:48:16;20.98;;;14.52;;
52468;SDS011;38381;53.688;10.776;2024-03-07T08:53:17;20.38;;;16.27;;
52468;SDS011;38381;53.688;10.776;2024-03-07T08:58:18;22.08;;;16.38;;
52468;SDS011;38381;53.688;10.776;2024-03-07T09:03:20;21.60;;;14.90;;
52468;SDS011;38381;53.688;10.776;2024-03-07T09:08:22;19.48;;;15.65;;
52468;SDS011;38381;53.688;10.776;2024-03-07T09:13:22;24.60;;;15.70;;
52468;SDS011;38381;53.688;10.776;2024-03-07T09:18:22;23.00;;;15.65;;
52468;SDS011;38381;53.688;10.776;2024-03-07T09:23:24;25.35;;;15.82;;
52468;SDS011;38381;53.688;10.776;2024-03-07T09:28:25;23.15;;;15.70;;
52468;SDS011;38381;53.688;10.776;2024-03-07T09:33:25;25.25;;;17.52;;
52468;SDS011;38381;53.688;10.776;2024-03-07T09:38:26;28.98;;;18.63;;
52468;SDS011;38381;53.688;10.776;2024-03-07T09:43:28;25.15;;;17.55;;
52468;SDS011;38381;53.688;10.776;2024-03-07T09:48:31;22.25;;;16.90;;
52468;SDS011;38381;53.688;10.776;2024-03-07T09:53:32;22.48;;;17.45;;
52468;SDS011;38381;53.688;10.776;2024-03-07T09:58:32;25.52;;;17.08;;
52468;SDS011;38381;53.688;10.776;2024-03-07T10:03:34;23.20;;;16.73;;
52468;SDS011;38381;53.688;10.776;2024-03-07T10:08:35;20.27;;;16.25;;
52468;SDS011;38381;53.688;10.776;2024-03-07T10:13:37;23.95;;;16.83;;
52468;SDS011;38381;53.688;10.776;2024-03-07T10:18:41;22.83;;;17.50;;
52468;SDS011;38381;53.688;10.776;2024-03-07T10:23:43;23.00;;;16.98;;
52468;SDS011;38381;53.688;10.776;2024-03-07T10:28:43;24.17;;;17.05;;
52468;SDS011;38381;53.688;10.776;2024-03-07T10:33:43;29.85;;;19.13;;
52468;SDS011;38381;53.688;10.776;2024-03-07T10:38:44;30.23;;;20.75;;
52468;SDS011;38381;53.688;10.776;2024-03-07T10:43:44;30.85;;;21.90;;
52468;SDS011;38381;53.688;10.776;2024-03-07T10:48:51;32.78;;;23.45;;
52468;SDS011;38381;53.688;10.776;2024-03-07T10:53:59;36.70;;;23.48;;
52468;SDS011;38381;53.688;10.776;2024-03-07T10:59:16;30.80;;;22.70;;
52468;SDS011;38381;53.688;10.776;2024-03-07T11:04:22;33.35;;;22.15;;
52468;SDS011;38381;53.688;10.776;2024-03-07T11:09:22;37.80;;;23.67;;
52468;SDS011;38381;53.688;10.776;2024-03-07T11:14:23;36.58;;;24.88;;
52468;SDS011;38381;53.688;10.776;2024-03-07T11:19:26;39.73;;;24.90;;
52468;SDS011;38381;53.688;10.776;2024-03-07T11:24:31;32.63;;;25.23;;
52468;SDS011;38381;53.688;10.776;2024-03-07T11:29:39;33.30;;;25.25;;
52468;SDS011;38381;53.688;10.776;2024-03-07T11:34:53;31.30;;;22.73;;
52468;SDS011;38381;53.688;10.776;2024-03-07T11:39:54;35.35;;;24.55;;
52468;SDS011;38381;53.688;10.776;2024-03-07T11:44:58;38.35;;;26.15;;
52468;SDS011;38381;53.688;10.776;2024-03-07T11:49:59;34.55;;;24.08;;
52468;SDS011;38381;53.688;10.776;2024-03-07T11:54:59;34.75;;;22.70;;
52468;SDS011;38381;53.688;10.776;2024-03-07T12:00:04;31.65;;;22.55;;
52468;SDS011;38381;53.688;10.776;2024-03-07T12:05:11;30.95;;;22.08;;
52468;SDS011;38381;53.688;10.776;2024-03-07T12:10:15;30.92;;;22.25;;
52468;SDS011;38381;53.688;10.776;2024-03-07T12:15:16;26.17;;;19.65;;
52468;SDS011;38381;53.688;10.776;2024-03-07T12:20:19;29.10;;;17.75;;
52468;SDS011;38381;53.688;10.776;2024-03-07T12:25:30;27.90;;;17.98;;
52468;SDS011;38381;53.688;10.776;2024-03-07T12:30:33;26.42;;;18.58;;
52468;SDS011;38381;53.688;10.776;2024-03-07T12:35:35;27.75;;;17.92;;
52468;SDS011;38381;53.688;10.776;2024-03-07T12:40:39;28.33;;;21.75;;
52468;SDS011;38381;53.688;10.776;2024-03-07T12:45:49;21.05;;;15.85;;
52468;SDS011;38381;53.688;10.776;2024-03-07T12:50:54;23.08;;;17.65;;
52468;SDS011;38381;53.688;10.776;2024-03-07T12:55:54;28.70;;;17.67;;
52468;SDS011;38381;53.688;10.776;2024-03-07T13:00:55;23.23;;;18.42;;
52468;SDS011;38381;53.688;10.776;2024-03-07T13:05:56;22.42;;;16.10;;
52468;SDS011;38381;53.688;10.776;2024-03-07T13:11:00;25.48;;;14.73;;
52468;SDS011;38381;53.688;10.776;2024-03-07T13:16:01;22.33;;;14.23;;
52468;SDS011;38381;53.688;10.776;2024-03-07T13:21:02;18.75;;;13.50;;
52468;SDS011;38381;53.688;10.776;2024-03-07T13:26:03;21.60;;;15.23;;
52468;SDS011;38381;53.688;10.776;2024-03-07T13:31:08;28.15;;;15.20;;
52468;SDS011;38381;53.688;10.776;2024-03-07T13:36:09;21.33;;;13.98;;
52468;SDS011;38381;53.688;10.776;2024-03-07T13:41:10;21.60;;;14.40;;
52468;SDS011;38381;53.688;10.776;2024-03-07T13:46:12;22.67;;;15.13;;
52468;SDS011;38381;53.688;10.776;2024-03-07T13:51:12;24.58;;;16.20;;
52468;SDS011;38381;53.688;10.776;2024-03-07T13:56:27;28.23;;;16.73;;
52468;SDS011;38381;53.688;10.776;2024-03-07T14:17:31;25.08;;;16.48;;
52468;SDS011;38381;53.688;10.776;2024-03-07T14:34:12;29.58;;;20.05;;
52468;SDS011;38381;53.688;10.776;2024-03-07T14:39:19;24.50;;;16.30;;
52468;SDS011;38381;53.688;10.776;2024-03-07T14:44:23;32.55;;;18.00;;
52468;SDS011;38381;53.688;10.776;2024-03-07T14:49:24;26.33;;;16.75;;
52468;SDS011;38381;53.688;10.776;2024-03-07T14:54:25;25.73;;;19.65;;
52468;SDS011;38381;53.688;10.776;2024-03-07T14:59:26;22.83;;;15.18;;
52468;SDS011;38381;53.688;10.776;2024-03-07T15:04:28;23.63;;;13.57;;
52468;SDS011;38381;53.688;10.776;2024-03-07T15:09:34;16.23;;;12.73;;
52468;SDS011;38381;53.688;10.776;2024-03-07T15:14:35;15.20;;;12.80;;
52468;SDS011;38381;53.688;10.776;2024-03-07T15:19:35;19.88;;;13.02;;
52468;SDS011;38381;53.688;10.776;2024-03-07T15:24:36;15.20;;;12.15;;
52468;SDS011;38381;53.688;10.776;2024-03-07T15:29:36;22.52;;;14.43;;
52468;SDS011;38381;53.688;10.776;2024-03-07T15:39:39;18.43;;;12.53;;
52468;SDS011;38381;53.688;10.776;2024-03-07T15:44:47;15.88;;;13.02;;
52468;SDS011;38381;53.688;10.776;2024-03-07T15:49:48;15.27;;;12.18;;
52468;SDS011;38381;53.688;10.776;2024-03-07T15:54:48;15.85;;;12.45;;
52468;SDS011;38381;53.688;10.776;2024-03-07T15:59:50;14.35;;;11.82;;
52468;SDS011;38381;53.688;10.776;2024-03-07T16:04:53;15.23;;;11.20;;
52468;SDS011;38381;53.688;10.776;2024-03-07T16:09:57;13.80;;;9.95;;
52468;SDS011;38381;53.688;10.776;2024-03-07T16:14:58;13.45;;;10.65;;
52468;SDS011;38381;53.688;10.776;2024-03-07T16:19:58;12.27;;;9.90;;
52468;SDS011;38381;53.688;10.776;2024-03-07T16:24:59;15.27;;;11.18;;
52468;SDS011;38381;53.688;10.776;2024-03-07T16:30:00;17.27;;;11.20;;
52468;SDS011;38381;53.688;10.776;2024-03-07T16:35:02;15.98;;;12.07;;
52468;SDS011;38381;53.688;10.776;2024-03-07T16:40:12;14.02;;;12.10;;
52468;SDS011;38381;53.688;10.776;2024-03-07T16:45:15;18.55;;;14.73;;
52468;SDS011;38381;53.688;10.776;2024-03-07T16:50:19;19.10;;;14.15;;
52468;SDS011;38381;53.688;10.776;2024-03-07T16:55:22;16.58;;;13.32;;
52468;SDS011;38381;53.688;10.776;2024-03-07T17:00:23;17.77;;;12.43;;
52468;SDS011;38381;53.688;10.776;2024-03-07T17:05:27;19.08;;;11.93;;
52468;SDS011;38381;53.688;10.776;2024-03-07T17:10:32;18.65;;;15.68;;
52468;SDS011;38381;53.688;10.776;2024-03-07T17:15:35;23.27;;;15.68;;
52468;SDS011;38381;53.688;10.776;2024-03-07T17:20:37;22.30;;;14.70;;
52468;SDS011;38381;53.688;10.776;2024-03-07T17:25:40;20.70;;;14.52;;
52468;SDS011;38381;53.688;10.776;2024-03-07T17:30:40;17.10;;;14.00;;
52468;SDS011;38381;53.688;10.776;2024-03-07T17:35:41;18.10;;;15.13;;
52468;SDS011;38381;53.688;10.776;2024-03-07T17:40:42;15.80;;;12.93;;
52468;SDS011;38381;53.688;10.776;2024-03-07T17:45:43;18.13;;;14.40;;
52468;SDS011;38381;53.688;10.776;2024-03-07T17:50:43;20.15;;;14.20;;
52468;SDS011;38381;53.688;10.776;2024-03-07T17:55:43;16.38;;;11.35;;
52468;SDS011;38381;53.688;10.776;2024-03-07T18:00:44;15.98;;;13.68;;
52468;SDS011;38381;53.688;10.776;2024-03-07T18:05:44;17.73;;;14.70;;
52468;SDS011;38381;53.688;10.776;2024-03-07T18:10:52;18.73;;;13.43;;
52468;SDS011;38381;53.688;10.776;2024-03-07T18:15:52;14.98;;;12.63;;
52468;SDS011;38381;53.688;10.776;2024-03-07T18:20:52;18.30;;;13.55;;
52468;SDS011;38381;53.688;10.776;2024-03-07T18:25:53;18.02;;;14.00;;
52468;SDS011;38381;53.688;10.776;2024-03-07T18:30:54;19.08;;;14.88;;
52468;SDS011;38381;53.688;10.776;2024-03-07T18:35:58;19.88;;;13.25;;
52468;SDS011;38381;53.688;10.776;2024-03-07T18:41:00;17.20;;;13.57;;
52468;SDS011;38381;53.688;10.776;2024-03-07T18:46:05;27.67;;;20.63;;
52468;SDS011;38381;53.688;10.776;2024-03-07T18:56:09;26.27;;;23.10;;
52468;SDS011;38381;53.688;10.776;2024-03-07T19:01:12;23.20;;;19.00;;
52468;SDS011;38381;53.688;10.776;2024-03-07T19:06:13;17.60;;;15.57;;
52468;SDS011;38381;53.688;10.776;2024-03-07T19:11:14;24.73;;;18.13;;
52468;SDS011;38381;53.688;10.776;2024-03-07T19:16:15;20.00;;;15.75;;
52468;SDS011;38381;53.688;10.776;2024-03-07T19:21:15;19.42;;;16.98;;
52468;SDS011;38381;53.688;10.776;2024-03-07T19:26:16;20.08;;;15.30;;
52468;SDS011;38381;53.688;10.776;2024-03-07T19:31:19;19.17;;;16.23;;
52468;SDS011;38381;53.688;10.776;2024-03-07T19:36:19;23.20;;;16.38;;
52468;SDS011;38381;53.688;10.776;2024-03-07T19:41:20;19.08;;;14.18;;
52468;SDS011;38381;53.688;10.776;2024-03-07T19:46:23;20.42;;;15.32;;
52468;SDS011;38381;53.688;10.776;2024-03-07T19:51:23;19.90;;;14.48;;
52468;SDS011;38381;53.688;10.776;2024-03-07T19:56:25;21.08;;;13.73;;
52468;SDS011;38381;53.688;10.776;2024-03-07T20:01:27;19.52;;;13.45;;
52468;SDS011;38381;53.688;10.776;2024-03-07T20:06:31;16.90;;;14.32;;
52468;SDS011;38381;53.688;10.776;2024-03-07T20:11:35;20.88;;;15.40;;
52468;SDS011;38381;53.688;10.776;2024-03-07T20:16:37;21.45;;;16.20;;
52468;SDS011;38381;53.688;10.776;2024-03-07T20:21:38;21.30;;;15.20;;
52468;SDS011;38381;53.688;10.776;2024-03-07T20:26:39;22.55;;;15.48;;
52468;SDS011;38381;53.688;10.776;2024-03-07T20:31:39;17.38;;;13.65;;
52468;SDS011;38381;53.688;10.776;2024-03-07T20:36:40;16.38;;;14.13;;
52468;SDS011;38381;53.688;10.776;2024-03-07T20:41:40;18.52;;;12.68;;
52468;SDS011;38381;53.688;10.776;2024-03-07T20:46:43;16.55;;;13.13;;
52468;SDS011;38381;53.688;10.776;2024-03-07T20:51:44;20.10;;;14.40;;
52468;SDS011;38381;53.688;10.776;2024-03-07T20:56:45;17.45;;;12.02;;
52468;SDS011;38381;53.688;10.776;2024-03-07T21:01:48;21.15;;;14.82;;
52468;SDS011;38381;53.688;10.776;2024-03-07T21:06:49;16.92;;;13.25;;
52468;SDS011;38381;53.688;10.776;2024-03-07T21:11:52;16.10;;;14.40;;
52468;SDS011;38381;53.688;10.776;2024-03-07T21:16:53;19.20;;;12.43;;
52468;SDS011;38381;53.688;10.776;2024-03-07T21:21:53;18.92;;;13.02;;
52468;SDS011;38381;53.688;10.776;2024-03-07T21:26:54;18.88;;;14.27;;
52468;SDS011;38381;53.688;10.776;2024-03-07T21:31:54;17.17;;;14.75;;
52468;SDS011;38381;53.688;10.776;2024-03-07T21:36:55;17.52;;;13.10;;
52468;SDS011;38381;53.688;10.776;2024-03-07T21:41:55;17.90;;;13.63;;
52468;SDS011;38381;53.688;10.776;2024-03-07T21:46:56;16.38;;;13.38;;
52468;SDS011;38381;53.688;10.776;2024-03-07T21:51:56;18.35;;;12.73;;
52468;SDS011;38381;53.688;10.776;2024-03-07T21:56:56;18.77;;;14.40;;
52468;SDS011;38381;53.688;10.776;2024-03-07T22:01:58;16.83;;;12.23;;
52468;SDS011;38381;53.688;10.776;2024-03-07T22:06:58;21.10;;;14.07;;
52468;SDS011;38381;53.688;10.776;2024-03-07T22:11:59;18.35;;;13.15;;
52468;SDS011;38381;53.688;10.776;2024-03-07T22:16:59;21.27;;;13.38;;
52468;SDS011;38381;53.688;10.776;2024-03-07T22:22:04;18.95;;;13.90;;
52468;SDS011;38381;53.688;10.776;2024-03-07T22:27:05;15.55;;;13.55;;
52468;SDS011;38381;53.688;10.776;2024-03-07T22:32:06;20.00;;;13.63;;
52468;SDS011;38381;53.688;10.776;2024-03-07T22:37:07;19.65;;;14.60;;
52468;SDS011;38381;53.688;10.776;2024-03-07T22:42:09;20.63;;;14.40;;
52468;SDS011;38381;53.688;10.776;2024-03-07T22:47:12;19.75;;;14.05;;
52468;SDS011;38381;53.688;10.776;2024-03-07T22:52:12;19.15;;;13.45;;
52468;SDS011;38381;53.688;10.776;2024-03-07T22:57:13;19.25;;;13.38;;
52468;SDS011;38381;53.688;10.776;2024-03-07T23:02:13;19.88;;;13.77;;
52468;SDS011;38381;53.688;10.776;2024-03-07T23:07:14;18.70;;;12.65;;
52468;SDS011;38381;53.688;10.776;2024-03-07T23:12:14;19.77;;;14.07;;
52468;SDS011;38381;53.688;10.776;2024-03-07T23:17:15;18.45;;;14.50;;
52468;SDS011;38381;53.688;10.776;2024-03-07T23:22:17;17.17;;;13.02;;
52468;SDS011;38381;53.688;10.776;2024-03-07T23:27:17;15.70;;;11.95;;
52468;SDS011;38381;53.688;10.776;2024-03-07T23:32:18;19.75;;;14.88;;
52468;SDS011;38381;53.688;10.776;2024-03-07T23:37:20;16.53;;;14.23;;
52468;SDS011;38381;53.688;10.776;2024-03-07T23:42:20;17.17;;;12.23;;
52468;SDS011;38381;53.688;10.776;2024-03-07T23:47:21;16.05;;;12.35;;
52468;SDS011;38381;53.688;10.776;2024-03-07T23:52:21;16.60;;;12.82;;
52468;SDS011;38381;53.688;10.776;2024-03-07T23:57:23;17.58;;;11.88;;
